PAHN

Haines Airport

Haines, Alaska, USA
PAHN 182320Z 1900/1924 30010KT P6SM BKN150 FM190600 30015KT P6SM BKN150 AMD LTD TO CLD VIS AND WIND
Issued Valid From Valid To
Jan-18 @ 23:20 UTC
(3 hours ago)
Jan-19 @ 00:00 UTC
(2 hours ago)
Jan-20 @ 00:00 UTC
(in 22 hours)
Jan-19 @ 00:00 to Jan-19 @ 06:00
PAHN 182320Z 1900/1924 30010KT P6SM BKN150
Wind Visibility Clouds
300° at 10 knots Greater than 6 miles
  • Broken at 15,000' AGL
From Jan-19 @ 06:00 to Jan-20 @ 00:00
FM190600 30015KT P6SM BKN150 AMD LTD TO CLD VIS AND WIND
Wind Visibility Clouds
300° at 15 knots Greater than 6 miles
  • Broken at 15,000' AGL
PAHN 182320Z 1900/1924 30010KT P6SM BKN150 FM190600 30015KT P6SM BKN150 AMD LTD TO CLD VIS AND WIND
Issued Jan-18 @ 23:20 UTC
(3 hours ago)
Valid From Jan-19 @ 00:00 UTC
(2 hours ago)
Valid To Jan-20 @ 00:00 UTC
(in 22 hours)
Jan-19 @ 00:00 - Jan-19 @ 06:00
Wind Visibility
300° at 10 knots Greater than 6 miles
Clouds
  • Broken at 15,000' AGL
From Jan-19 @ 06:00 - Jan-20 @ 00:00
Wind Visibility
300° at 15 knots Greater than 6 miles
Clouds
  • Broken at 15,000' AGL